Time;durP1;ratioP1;P1;durP2;ratioP2;P2;SDS_P1;SDS_P2;PMS_P1;PMS_P2;Temp;Humidity;BMP_temperature;BMP_pressure;BME280_temperature;BME280_humidity;BME280_pressure;Samples;Min_cycle;Max_cycle;Signal;HPM_P1;HPM_P2
2022/10/21 00:01:48;;;;;;;27.97;17.73;;;6.80;99.90;;;;;;5098947;28;20223;-76
2022/10/21 00:04:37;;;;;;;29.20;18.13;;;6.80;99.90;;;;;;5088526;28;20211;-76
2022/10/21 00:07:25;;;;;;;31.73;18.70;;;6.80;99.90;;;;;;5084595;28;20225;-75
2022/10/21 00:10:15;;;;;;;26.20;18.13;;;6.40;99.90;;;;;;5085430;28;20249;-75
2022/10/21 00:13:04;;;;;;;28.60;17.57;;;6.50;99.90;;;;;;5084186;28;20218;-75
2022/10/21 00:16:00;;;;;;;29.17;17.80;;;6.50;99.90;;;;;;5074998;28;20775;-76
2022/10/21 00:18:49;;;;;;;28.60;17.23;;;6.60;99.90;;;;;;5066452;28;20231;-77
2022/10/21 00:21:39;;;;;;;30.80;17.43;;;6.70;99.90;;;;;;5076339;28;20719;-76
2022/10/21 00:24:28;;;;;;;23.90;16.57;;;6.60;99.90;;;;;;5097747;28;20544;-76
2022/10/21 00:27:19;;;;;;;30.83;17.43;;;6.50;99.90;;;;;;5084993;28;20291;-76
2022/10/21 00:30:09;;;;;;;28.87;16.50;;;6.60;99.90;;;;;;5099864;28;20257;-74
2022/10/21 00:32:58;;;;;;;26.93;16.37;;;6.40;99.90;;;;;;5084340;28;20243;-76
2022/10/21 00:35:52;;;;;;;27.03;16.23;;;6.40;99.90;;;;;;5088586;28;20236;-76
2022/10/21 00:38:41;;;;;;;28.57;16.17;;;6.30;99.90;;;;;;5103516;28;20225;-76
2022/10/21 00:41:30;;;;;;;25.60;17.00;;;6.40;99.90;;;;;;5100850;28;20219;-76
2022/10/21 00:44:20;;;;;;;28.33;17.30;;;6.50;99.90;;;;;;5100215;28;20222;-76
2022/10/21 00:47:15;;;;;;;29.23;16.57;;;6.40;99.90;;;;;;5097568;28;20684;-75
2022/10/21 00:50:05;;;;;;;24.57;16.20;;;6.40;99.90;;;;;;5102781;28;20230;-75
2022/10/21 00:52:56;;;;;;;30.80;16.83;;;6.50;99.90;;;;;;5092256;28;20230;-75
2022/10/21 00:55:49;;;;;;;27.07;16.80;;;6.40;99.90;;;;;;5076588;28;20234;-75
2022/10/21 00:58:39;;;;;;;29.30;17.13;;;6.50;99.90;;;;;;5083774;28;20228;-75
2022/10/21 01:01:29;;;;;;;27.27;16.60;;;6.30;99.90;;;;;;5086529;28;20227;-75
2022/10/21 01:04:19;;;;;;;26.37;17.07;;;6.10;99.90;;;;;;5094243;28;20297;-74
2022/10/21 01:07:07;;;;;;;28.10;17.43;;;6.10;99.90;;;;;;5082470;28;20217;-76
2022/10/21 01:09:56;;;;;;;29.80;17.60;;;6.00;99.90;;;;;;5084817;28;20724;-77
2022/10/21 01:12:58;;;;;;;26.27;16.50;;;6.20;99.90;;;;;;5085932;28;20231;-76
2022/10/21 01:15:55;;;;;;;27.93;16.30;;;6.20;99.90;;;;;;5087961;28;20223;-76
2022/10/21 01:18:52;;;;;;;24.20;16.20;;;6.10;99.90;;;;;;5080651;28;20220;-75
2022/10/21 01:21:45;;;;;;;28.33;17.40;;;6.10;99.90;;;;;;5088437;28;20227;-78
2022/10/21 01:24:54;;;;;;;26.37;16.23;;;6.30;99.90;;;;;;5095877;28;21006;-76
2022/10/21 01:27:54;;;;;;;28.17;15.97;;;6.30;99.90;;;;;;5083037;28;20231;-77
2022/10/21 01:30:53;;;;;;;26.53;16.30;;;6.30;99.90;;;;;;5101536;27;20721;-75
2022/10/21 01:33:45;;;;;;;26.73;16.47;;;6.30;99.90;;;;;;5089283;28;20254;-76
2022/10/21 01:36:40;;;;;;;27.00;16.13;;;6.20;99.90;;;;;;5097392;28;20708;-76
2022/10/21 01:39:38;;;;;;;26.73;17.07;;;6.30;99.90;;;;;;5089952;28;20215;-76
2022/10/21 01:42:36;;;;;;;26.60;15.63;;;6.10;99.90;;;;;;5096000;28;20307;-75
2022/10/21 01:45:31;;;;;;;28.40;16.30;;;6.20;99.90;;;;;;5085066;28;20235;-76
2022/10/21 01:48:25;;;;;;;25.80;16.40;;;6.20;99.90;;;;;;5084707;28;20224;-77
2022/10/21 01:51:16;;;;;;;26.33;15.80;;;6.30;99.90;;;;;;5081821;28;20729;-76
2022/10/21 01:54:09;;;;;;;28.27;16.03;;;6.20;99.90;;;;;;5082788;28;21061;-76
2022/10/21 01:56:59;;;;;;;29.37;17.73;;;5.90;99.90;;;;;;5085419;28;20227;-76
2022/10/21 01:59:49;;;;;;;25.33;16.00;;;5.80;99.90;;;;;;5087329;28;20230;-74
2022/10/21 02:02:42;;;;;;;24.47;15.97;;;5.80;99.90;;;;;;5086045;28;20224;-75
2022/10/21 02:05:33;;;;;;;27.63;16.97;;;5.80;99.90;;;;;;5097916;28;20717;-77
2022/10/21 02:08:22;;;;;;;27.83;16.87;;;5.80;99.90;;;;;;5078591;28;20243;-76
2022/10/21 02:11:12;;;;;;;28.00;16.67;;;5.70;99.90;;;;;;5085897;28;20695;-76
2022/10/21 02:14:06;;;;;;;28.60;16.90;;;5.60;99.90;;;;;;5074925;28;20223;-76
2022/10/21 02:16:55;;;;;;;29.80;17.00;;;5.50;99.90;;;;;;5073264;28;20239;-77
2022/10/21 02:19:45;;;;;;;28.60;17.80;;;5.70;99.90;;;;;;5086381;28;20239;-77
2022/10/21 02:22:37;;;;;;;28.67;16.93;;;5.60;99.90;;;;;;5074571;28;20268;-75
2022/10/21 02:25:31;;;;;;;25.97;16.27;;;5.60;99.90;;;;;;5092810;28;20220;-75
2022/10/21 02:28:20;;;;;;;29.37;17.43;;;5.60;99.90;;;;;;5082463;28;20239;-76
2022/10/21 02:31:22;;;;;;;28.83;15.73;;;5.50;99.90;;;;;;5087738;28;21859;-73
2022/10/21 02:34:26;;;;;;;28.20;17.50;;;5.60;99.90;;;;;;5086336;28;20276;-75
2022/10/21 02:37:25;;;;;;;27.87;16.80;;;5.60;99.90;;;;;;5088407;28;20219;-76
2022/10/21 02:40:20;;;;;;;25.13;16.07;;;5.60;99.90;;;;;;5075256;28;20211;-75
2022/10/21 02:43:12;;;;;;;29.27;17.27;;;5.30;99.90;;;;;;5089922;28;20219;-78
2022/10/21 02:46:05;;;;;;;30.67;16.77;;;5.30;99.90;;;;;;5093557;28;20640;-75
2022/10/21 02:48:54;;;;;;;25.50;16.73;;;5.40;99.90;;;;;;5082861;28;20220;-75
2022/10/21 02:51:43;;;;;;;28.40;16.27;;;5.40;99.90;;;;;;5076595;28;20292;-76
2022/10/21 02:54:32;;;;;;;24.93;16.27;;;5.50;99.90;;;;;;5081475;28;20589;-76
2022/10/21 02:57:22;;;;;;;26.97;17.47;;;5.50;99.90;;;;;;5091336;28;20219;-76
2022/10/21 03:00:12;;;;;;;25.10;16.47;;;5.70;99.90;;;;;;5083529;28;20223;-76
2022/10/21 03:03:01;;;;;;;29.37;16.47;;;5.70;99.90;;;;;;5086501;28;20224;-76
2022/10/21 03:05:50;;;;;;;32.03;18.17;;;5.60;99.90;;;;;;5082866;28;20223;-76
2022/10/21 03:08:38;;;;;;;25.73;16.57;;;5.50;99.90;;;;;;5077953;28;20244;-76
2022/10/21 03:11:27;;;;;;;25.60;16.43;;;5.60;99.90;;;;;;5082708;28;20329;-76
2022/10/21 03:14:17;;;;;;;25.43;17.17;;;5.50;99.90;;;;;;5097969;28;20239;-75
2022/10/21 03:17:06;;;;;;;27.03;16.60;;;5.50;99.90;;;;;;5087451;28;20725;-73
2022/10/21 03:19:54;;;;;;;27.43;17.10;;;5.50;99.90;;;;;;5092799;28;20238;-75
2022/10/21 03:22:43;;;;;;;31.07;17.23;;;5.40;99.90;;;;;;5092609;28;20227;-75
2022/10/21 03:25:32;;;;;;;28.80;18.10;;;5.30;99.90;;;;;;5082839;28;20304;-75
2022/10/21 03:28:23;;;;;;;27.77;16.40;;;5.40;99.90;;;;;;5080222;28;20227;-76
2022/10/21 03:31:13;;;;;;;28.60;17.10;;;5.30;99.90;;;;;;5075671;28;20714;-75
2022/10/21 03:34:02;;;;;;;33.87;18.83;;;5.40;99.90;;;;;;5085744;28;20615;-76
2022/10/21 03:36:50;;;;;;;24.57;16.17;;;5.40;99.90;;;;;;5104799;28;20230;-75
2022/10/21 03:39:39;;;;;;;27.40;16.77;;;5.40;99.90;;;;;;5088675;28;20724;-76
2022/10/21 03:42:28;;;;;;;30.03;16.57;;;5.10;99.90;;;;;;5089017;28;20503;-75
2022/10/21 03:45:18;;;;;;;28.77;17.20;;;4.90;99.90;;;;;;5103094;28;20219;-75
2022/10/21 03:48:08;;;;;;;28.33;17.60;;;4.90;99.90;;;;;;5096249;28;20227;-75
2022/10/21 03:50:57;;;;;;;26.63;17.43;;;5.00;99.90;;;;;;5091556;28;20590;-76
2022/10/21 03:53:46;;;;;;;29.10;17.73;;;5.00;99.90;;;;;;5091624;28;20223;-76
2022/10/21 03:56:34;;;;;;;25.10;16.30;;;5.00;99.90;;;;;;5102021;28;20225;-77
2022/10/21 03:59:23;;;;;;;30.20;17.73;;;5.10;99.90;;;;;;5084794;28;20268;-76
2022/10/21 04:02:12;;;;;;;28.70;17.20;;;5.10;99.90;;;;;;5101657;28;20216;-75
2022/10/21 04:05:02;;;;;;;25.13;16.90;;;5.10;99.90;;;;;;5082277;28;20223;-74
2022/10/21 04:07:50;;;;;;;26.67;16.47;;;5.00;99.90;;;;;;5105488;28;20299;-75
2022/10/21 04:10:41;;;;;;;28.00;17.10;;;5.20;99.90;;;;;;5104267;28;20223;-75
2022/10/21 04:13:30;;;;;;;25.30;15.63;;;5.30;99.90;;;;;;5075341;28;20299;-76
2022/10/21 04:16:20;;;;;;;27.47;16.03;;;5.30;99.90;;;;;;5092350;28;20225;-75
2022/10/21 04:19:12;;;;;;;27.23;16.40;;;5.30;99.90;;;;;;5088420;28;20246;-75
2022/10/21 04:22:02;;;;;;;25.00;16.20;;;5.20;99.90;;;;;;5085224;28;20219;-76
2022/10/21 04:24:51;;;;;;;25.37;14.90;;;5.30;99.90;;;;;;5067774;28;20239;-76
2022/10/21 04:27:40;;;;;;;28.13;15.90;;;5.30;99.90;;;;;;5083897;28;20289;-77
2022/10/21 04:30:29;;;;;;;24.77;15.33;;;5.30;99.90;;;;;;5082807;28;20250;-76
2022/10/21 04:33:18;;;;;;;27.77;16.70;;;5.20;99.90;;;;;;5082002;28;20738;-75
2022/10/21 04:36:07;;;;;;;28.97;15.20;;;5.00;99.90;;;;;;5082283;28;20226;-76
2022/10/21 04:38:57;;;;;;;24.57;15.23;;;4.90;99.90;;;;;;5082928;28;20228;-76
2022/10/21 04:41:48;;;;;;;28.53;15.90;;;5.00;99.90;;;;;;5083543;28;20230;-75
2022/10/21 04:44:42;;;;;;;26.90;15.43;;;4.90;99.90;;;;;;5103508;28;20215;-76
2022/10/21 04:47:30;;;;;;;25.10;15.20;;;5.10;99.90;;;;;;5085158;28;20721;-75
2022/10/21 04:50:19;;;;;;;26.87;15.63;;;5.20;99.90;;;;;;5076943;28;20297;-76
2022/10/21 04:53:08;;;;;;;29.87;15.13;;;5.30;99.90;;;;;;5103650;28;20792;-75
2022/10/21 04:55:58;;;;;;;26.30;16.03;;;5.20;99.90;;;;;;5087035;28;20231;-76
2022/10/21 04:58:47;;;;;;;27.67;15.23;;;5.20;99.90;;;;;;5061815;28;20732;-76
2022/10/21 05:01:35;;;;;;;24.67;15.00;;;5.20;99.90;;;;;;5090579;28;20334;-77
2022/10/21 05:04:24;;;;;;;24.93;15.67;;;5.20;99.90;;;;;;5105919;28;20215;-78
2022/10/21 05:07:13;;;;;;;24.53;15.77;;;5.30;99.90;;;;;;5104570;28;20320;-76
2022/10/21 05:10:02;;;;;;;25.13;15.47;;;5.30;99.90;;;;;;5094136;28;20219;-75
2022/10/21 05:12:52;;;;;;;26.03;15.90;;;5.30;99.90;;;;;;5101603;28;20234;-77
2022/10/21 05:15:41;;;;;;;23.80;15.63;;;5.40;99.90;;;;;;5099644;28;20235;-76
2022/10/21 05:18:30;;;;;;;28.67;15.30;;;5.40;99.90;;;;;;5095313;28;20219;-77
2022/10/21 05:21:19;;;;;;;25.80;15.40;;;5.40;99.90;;;;;;5096062;28;20534;-77
2022/10/21 05:24:08;;;;;;;22.00;14.33;;;5.30;99.90;;;;;;5088431;28;20223;-76
2022/10/21 05:26:56;;;;;;;24.40;14.97;;;5.30;99.90;;;;;;5096151;28;20806;-76
2022/10/21 05:29:46;;;;;;;24.47;15.10;;;5.30;99.90;;;;;;5088532;28;20254;-76
2022/10/21 05:32:35;;;;;;;23.67;15.13;;;5.30;99.90;;;;;;5097717;28;20227;-77
2022/10/21 05:35:24;;;;;;;26.17;15.80;;;4.90;99.90;;;;;;5098307;28;20330;-77
2022/10/21 05:38:13;;;;;;;25.70;15.47;;;4.90;99.90;;;;;;5101958;28;20604;-76
2022/10/21 05:41:02;;;;;;;23.23;14.20;;;4.80;99.90;;;;;;5102220;28;20292;-76
2022/10/21 05:43:51;;;;;;;23.63;15.17;;;5.10;99.90;;;;;;5097610;28;20231;-76
2022/10/21 05:46:41;;;;;;;23.47;15.00;;;5.20;99.90;;;;;;5084917;28;20778;-76
2022/10/21 05:49:47;;;;;;;23.93;15.27;;;5.20;99.90;;;;;;5102008;28;20576;-76
2022/10/21 05:52:36;;;;;;;26.93;15.43;;;5.40;99.90;;;;;;5076848;28;20246;-75
2022/10/21 05:55:26;;;;;;;24.97;15.37;;;5.40;99.90;;;;;;5088644;28;20242;-81
2022/10/21 05:58:15;;;;;;;23.17;14.70;;;5.40;99.90;;;;;;5106699;28;20214;-75
2022/10/21 06:01:03;;;;;;;26.17;15.53;;;5.40;99.90;;;;;;5108787;27;20221;-75
2022/10/21 06:03:53;;;;;;;21.33;14.00;;;5.50;99.90;;;;;;5088435;28;20223;-76
2022/10/21 06:06:42;;;;;;;27.70;14.50;;;5.50;99.90;;;;;;5090374;28;20218;-75
2022/10/21 06:09:31;;;;;;;23.77;14.23;;;5.50;99.90;;;;;;5091397;28;20807;-76
2022/10/21 06:12:20;;;;;;;23.27;14.43;;;5.50;99.90;;;;;;5087542;28;20224;-75
2022/10/21 06:15:10;;;;;;;32.57;14.87;;;5.40;99.90;;;;;;5078156;28;21087;-76
2022/10/21 06:17:58;;;;;;;31.73;14.90;;;5.50;99.90;;;;;;5090083;28;20328;-76
2022/10/21 06:20:48;;;;;;;27.37;14.60;;;5.40;99.90;;;;;;5071921;28;20325;-75
2022/10/21 06:23:37;;;;;;;24.23;14.97;;;5.50;99.90;;;;;;5083078;28;20584;-77
2022/10/21 06:26:27;;;;;;;24.80;14.87;;;5.60;99.90;;;;;;5085049;28;20219;-75
2022/10/21 06:29:18;;;;;;;25.27;13.73;;;5.60;99.90;;;;;;5105563;28;20223;-75
2022/10/21 06:32:07;;;;;;;24.47;14.97;;;5.30;99.90;;;;;;5108832;27;20219;-75
2022/10/21 06:34:56;;;;;;;25.47;14.90;;;5.40;99.90;;;;;;5108934;27;20256;-75
2022/10/21 06:37:46;;;;;;;22.50;13.93;;;5.50;99.90;;;;;;5104482;28;20266;-76
2022/10/21 06:40:35;;;;;;;23.10;14.33;;;5.50;99.90;;;;;;5098411;28;20265;-76
2022/10/21 06:43:24;;;;;;;24.17;14.40;;;5.50;99.90;;;;;;5102397;28;20234;-75
2022/10/21 06:46:14;;;;;;;21.73;13.67;;;5.50;99.90;;;;;;5094323;28;20242;-75
2022/10/21 06:49:03;;;;;;;20.80;13.50;;;5.60;99.90;;;;;;5099080;28;20249;-76
2022/10/21 06:51:52;;;;;;;20.80;13.17;;;5.90;99.90;;;;;;5103654;28;20322;-74
2022/10/21 06:54:42;;;;;;;20.57;13.60;;;5.90;99.90;;;;;;5101743;28;20301;-76
2022/10/21 06:57:31;;;;;;;21.33;13.23;;;5.90;99.90;;;;;;5095722;28;20227;-76
2022/10/21 07:00:20;;;;;;;23.17;13.77;;;6.00;99.90;;;;;;5092203;28;20231;-76
2022/10/21 07:03:09;;;;;;;26.70;15.23;;;6.00;99.90;;;;;;5107277;28;20238;-75
2022/10/21 07:05:59;;;;;;;20.23;12.97;;;6.10;99.90;;;;;;5106735;28;20688;-76
2022/10/21 07:08:47;;;;;;;20.03;12.73;;;6.10;99.90;;;;;;5091157;28;20229;-72
2022/10/21 07:11:47;;;;;;;20.83;13.00;;;6.10;99.90;;;;;;5086140;28;20223;-74
2022/10/21 07:14:36;;;;;;;18.23;13.13;;;6.30;99.90;;;;;;5092030;28;20694;-75
2022/10/21 07:17:24;;;;;;;19.60;12.40;;;6.50;99.90;;;;;;5108576;28;20230;-75
2022/10/21 07:20:13;;;;;;;22.23;12.83;;;6.50;99.90;;;;;;5095441;28;20226;-75
2022/10/21 07:23:02;;;;;;;19.63;12.40;;;6.70;99.90;;;;;;5084911;28;20227;-74
2022/10/21 07:25:51;;;;;;;19.30;12.70;;;6.70;99.90;;;;;;5085566;28;20227;-75
2022/10/21 07:28:45;;;;;;;23.73;12.53;;;6.80;99.90;;;;;;5100969;28;20697;-75
2022/10/21 07:31:37;;;;;;;16.23;11.40;;;6.80;99.90;;;;;;5089287;28;20237;-76
2022/10/21 07:34:25;;;;;;;18.17;12.03;;;6.90;99.90;;;;;;5093104;27;20238;-76
2022/10/21 07:37:14;;;;;;;18.73;11.33;;;6.80;99.90;;;;;;5091504;28;20873;-75
2022/10/21 07:40:07;;;;;;;17.50;10.97;;;7.00;99.90;;;;;;5102923;28;20328;-77
2022/10/21 07:42:57;;;;;;;19.47;11.53;;;7.30;99.90;;;;;;5103142;28;20583;-76
2022/10/21 07:45:47;;;;;;;21.90;12.00;;;7.40;99.90;;;;;;5103949;28;20223;-75
2022/10/21 07:48:36;;;;;;;17.20;11.30;;;7.40;99.90;;;;;;5104907;28;20227;-75
2022/10/21 07:51:27;;;;;;;22.03;11.37;;;7.30;99.90;;;;;;5091602;28;20226;-78
2022/10/21 07:54:20;;;;;;;20.20;10.93;;;7.40;99.90;;;;;;5081622;28;20242;-77
2022/10/21 07:57:08;;;;;;;26.00;12.17;;;7.50;99.90;;;;;;5103070;28;20219;-77
2022/10/21 07:59:57;;;;;;;18.57;11.10;;;7.50;99.90;;;;;;5092747;28;20613;-76
2022/10/21 08:02:47;;;;;;;18.83;11.93;;;7.70;99.90;;;;;;5089824;28;20732;-76
2022/10/21 08:05:40;;;;;;;19.10;10.90;;;7.90;99.90;;;;;;5087849;28;20727;-77
2022/10/21 08:08:32;;;;;;;20.27;12.00;;;7.80;99.90;;;;;;5104770;28;20223;-77
2022/10/21 08:11:22;;;;;;;16.27;11.27;;;7.70;99.90;;;;;;5093709;28;20229;-77
2022/10/21 08:14:11;;;;;;;15.87;10.97;;;7.70;99.90;;;;;;5082642;28;20225;-77
2022/10/21 08:17:00;;;;;;;17.17;10.93;;;7.80;99.90;;;;;;5086262;28;20330;-77
2022/10/21 08:19:50;;;;;;;16.20;10.97;;;7.80;99.90;;;;;;5090598;28;20230;-76
2022/10/21 08:22:39;;;;;;;18.40;11.70;;;7.90;99.90;;;;;;5081672;28;20775;-75
2022/10/21 08:25:29;;;;;;;18.17;11.10;;;8.00;99.90;;;;;;5086175;28;20232;-76
2022/10/21 08:28:19;;;;;;;14.23;10.20;;;8.10;99.90;;;;;;5070835;28;20222;-77
2022/10/21 08:31:10;;;;;;;16.23;10.37;;;8.00;99.90;;;;;;5079956;28;20230;-74
2022/10/21 08:33:58;;;;;;;22.50;10.40;;;8.10;99.90;;;;;;5084766;28;20229;-75
2022/10/21 08:36:49;;;;;;;18.57;10.80;;;8.10;99.90;;;;;;5078167;28;20233;-75
2022/10/21 08:39:38;;;;;;;14.17;9.47;;;8.20;99.90;;;;;;5080631;28;20225;-75
2022/10/21 08:42:27;;;;;;;18.90;10.47;;;8.20;99.90;;;;;;5081676;28;20216;-75
2022/10/21 08:45:26;;;;;;;17.03;12.03;;;8.20;99.90;;;;;;5077472;28;20228;-77
2022/10/21 08:48:19;;;;;;;18.40;11.30;;;8.30;99.90;;;;;;5101433;28;20245;-76
2022/10/21 08:51:15;;;;;;;16.83;10.73;;;8.60;99.90;;;;;;5079577;28;20230;-75
2022/10/21 08:54:12;;;;;;;17.93;10.73;;;8.60;99.90;;;;;;5082334;28;20849;-76
2022/10/21 08:57:01;;;;;;;19.20;10.67;;;8.70;99.90;;;;;;5076850;28;20246;-76
2022/10/21 08:59:50;;;;;;;16.70;8.87;;;8.80;99.90;;;;;;5094021;28;20230;-76
2022/10/21 09:02:55;;;;;;;17.87;10.00;;;8.80;99.90;;;;;;5102059;28;20582;-76
2022/10/21 09:06:16;;;;;;;15.80;9.47;;;8.80;99.90;;;;;;5103403;28;20255;-77
2022/10/21 09:09:16;;;;;;;14.23;10.00;;;8.80;99.90;;;;;;5087186;28;20225;-78
2022/10/21 09:12:13;;;;;;;16.30;10.13;;;8.60;99.90;;;;;;5079313;28;20791;-76
2022/10/21 09:15:14;;;;;;;22.87;9.67;;;8.70;99.90;;;;;;5104759;28;20219;-76
2022/10/21 09:18:17;;;;;;;13.83;9.67;;;8.80;99.90;;;;;;5095417;28;20229;-77
2022/10/21 09:21:13;;;;;;;16.67;10.60;;;9.00;99.90;;;;;;5083898;28;20715;-74
2022/10/21 09:24:11;;;;;;;15.00;9.93;;;9.10;99.90;;;;;;5074221;28;20340;-77
2022/10/21 09:27:01;;;;;;;15.07;9.77;;;9.00;99.90;;;;;;5087413;28;20789;-77
2022/10/21 09:29:55;;;;;;;18.17;9.87;;;9.10;99.90;;;;;;5092533;28;20220;-76
2022/10/21 09:32:49;;;;;;;16.63;9.83;;;9.20;99.90;;;;;;5070892;28;20250;-77
2022/10/21 09:35:47;;;;;;;17.10;10.83;;;9.20;99.90;;;;;;5103995;28;20309;-76
2022/10/21 09:38:43;;;;;;;15.83;9.20;;;9.10;99.90;;;;;;5095463;28;20241;-76
2022/10/21 09:41:39;;;;;;;15.53;9.87;;;9.20;99.90;;;;;;5086353;28;20245;-77
2022/10/21 09:44:28;;;;;;;16.73;10.17;;;9.30;99.90;;;;;;5096630;28;20219;-78
2022/10/21 09:47:20;;;;;;;18.05;8.70;;;9.40;99.90;;;;;;5087048;28;20881;-77
2022/10/21 09:50:16;;;;;;;13.30;9.73;;;9.30;99.90;;;;;;5105548;28;20221;-77
2022/10/21 09:53:12;;;;;;;16.83;10.10;;;9.40;99.90;;;;;;5083610;28;20219;-76
2022/10/21 09:56:05;;;;;;;16.97;8.97;;;9.60;99.90;;;;;;5084258;28;20238;-77
2022/10/21 09:59:06;;;;;;;15.43;9.33;;;9.60;99.90;;;;;;5106298;28;20264;-77
2022/10/21 10:01:55;;;;;;;14.47;9.27;;;9.70;99.90;;;;;;5079735;28;20268;-76
2022/10/21 10:04:44;;;;;;;14.57;9.80;;;9.90;99.90;;;;;;5080061;28;20709;-73
2022/10/21 10:07:35;;;;;;;13.53;9.03;;;9.70;99.90;;;;;;5103616;28;20222;-76
2022/10/21 10:10:32;;;;;;;14.10;9.43;;;9.80;99.90;;;;;;5101778;27;20314;-77
2022/10/21 10:13:22;;;;;;;14.55;9.85;;;9.80;99.90;;;;;;5088606;28;20215;-76
2022/10/21 10:16:22;;;;;;;14.07;8.75;;;9.50;99.90;;;;;;5091014;28;20665;-76
2022/10/21 10:19:15;;;;;;;15.73;9.68;;;9.50;99.90;;;;;;5092366;28;20218;-74
2022/10/21 10:22:11;;;;;;;14.43;9.83;;;9.60;99.90;;;;;;5109472;28;20235;-76
2022/10/21 10:25:08;;;;;;;15.03;9.27;;;9.70;99.90;;;;;;5094267;28;20750;-76
2022/10/21 10:27:59;;;;;;;15.23;9.30;;;9.80;99.90;;;;;;5109205;27;20238;-75
2022/10/21 10:30:52;;;;;;;14.45;10.35;;;9.80;99.90;;;;;;5095174;28;20239;-75
2022/10/21 10:33:53;;;;;;;23.55;10.93;;;9.80;99.90;;;;;;5090311;28;20223;-76
2022/10/21 10:36:49;;;;;;;13.00;9.73;;;9.80;99.90;;;;;;5085887;28;20592;-75
2022/10/21 10:39:39;;;;;;;16.20;10.63;;;9.70;99.90;;;;;;5084227;28;20220;-76
2022/10/21 10:42:33;;;;;;;15.77;10.50;;;9.80;99.90;;;;;;5071073;28;20227;-77
2022/10/21 10:45:23;;;;;;;15.93;10.98;;;9.60;99.90;;;;;;5088386;28;20216;-76
2022/10/21 10:48:22;;;;;;;21.08;10.73;;;9.60;99.90;;;;;;5083402;28;20234;-76
2022/10/21 10:51:26;;;;;;;17.83;10.63;;;9.50;99.90;;;;;;5084317;28;21915;-77
2022/10/21 10:54:18;;;;;;;15.60;10.37;;;9.50;99.90;;;;;;5080493;28;20559;-76
2022/10/21 10:57:13;;;;;;;26.90;11.30;;;9.60;99.90;;;;;;5085001;28;20246;-77
2022/10/21 11:00:06;;;;;;;15.93;10.03;;;9.60;99.90;;;;;;5087543;28;20239;-77
2022/10/21 11:03:00;;;;;;;20.00;10.80;;;9.50;99.90;;;;;;5088405;28;20265;-76
2022/10/21 11:05:51;;;;;;;15.20;10.15;;;9.80;99.90;;;;;;5085736;28;20686;-77
2022/10/21 11:08:46;;;;;;;30.40;10.40;;;9.90;99.90;;;;;;5084084;28;20234;-77
2022/10/21 11:11:38;;;;;;;17.48;10.63;;;9.80;99.90;;;;;;5085907;28;20277;-77
2022/10/21 11:14:27;;;;;;;15.77;9.87;;;9.70;99.90;;;;;;5062680;28;20306;-78
2022/10/21 11:17:19;;;;;;;19.52;10.95;;;9.70;99.90;;;;;;5073125;28;20767;-78
2022/10/21 11:20:21;;;;;;;21.03;10.80;;;9.80;99.90;;;;;;5085652;28;20223;-77
2022/10/21 11:23:30;;;;;;;15.15;10.07;;;9.90;99.90;;;;;;5085866;28;20241;-76
2022/10/21 11:26:28;;;;;;;15.98;10.00;;;10.10;99.90;;;;;;5094678;28;20219;-73
2022/10/21 11:29:35;;;;;;;17.35;10.52;;;10.10;99.90;;;;;;5096109;28;20338;-74
2022/10/21 11:32:34;;;;;;;14.95;10.05;;;10.30;99.90;;;;;;5081116;28;20245;-76
2022/10/21 11:35:41;;;;;;;16.77;11.38;;;10.50;99.90;;;;;;5057974;28;20227;-74
2022/10/21 11:38:48;;;;;;;16.38;10.80;;;10.60;99.90;;;;;;5085995;28;20218;-77
2022/10/21 11:41:44;;;;;;;13.88;10.30;;;10.50;99.90;;;;;;5069741;28;20234;-76
2022/10/21 11:44:43;;;;;;;15.02;10.13;;;10.40;99.90;;;;;;5069519;28;20303;-76
2022/10/21 11:47:40;;;;;;;15.25;10.15;;;10.30;99.90;;;;;;5081662;28;20216;-76
2022/10/21 11:50:40;;;;;;;16.15;10.27;;;10.30;99.90;;;;;;5075241;28;20227;-75
2022/10/21 11:53:42;;;;;;;15.57;10.88;;;10.30;99.90;;;;;;5093935;28;20235;-75
2022/10/21 11:56:38;;;;;;;15.70;10.85;;;10.40;99.90;;;;;;5071761;28;20622;-75
2022/10/21 11:59:42;;;;;;;17.00;10.23;;;10.30;99.90;;;;;;5083623;28;20709;-76
2022/10/21 12:02:43;;;;;;;16.45;9.75;;;10.30;99.90;;;;;;5086883;28;20605;-77
2022/10/21 12:05:35;;;;;;;12.45;9.40;;;10.40;99.90;;;;;;5086399;28;20272;-76
2022/10/21 12:08:28;;;;;;;13.27;9.57;;;10.40;99.90;;;;;;5085267;28;20674;-76
2022/10/21 12:11:22;;;;;;;14.60;9.77;;;10.40;99.90;;;;;;5082679;28;20246;-76
2022/10/21 12:14:25;;;;;;;15.13;9.80;;;10.40;99.90;;;;;;5082953;28;20298;-78
2022/10/21 12:17:21;;;;;;;18.15;11.02;;;10.40;99.90;;;;;;5082262;28;20298;-77
2022/10/21 12:20:17;;;;;;;14.57;10.00;;;10.60;99.90;;;;;;5083460;28;20230;-76
2022/10/21 12:23:15;;;;;;;17.77;9.48;;;10.70;99.90;;;;;;5080857;28;20229;-78
2022/10/21 12:26:15;;;;;;;13.57;9.00;;;10.80;99.90;;;;;;5081394;28;20246;-76
2022/10/21 12:29:13;;;;;;;15.68;9.95;;;10.90;99.90;;;;;;5081367;28;20237;-77
2022/10/21 12:32:08;;;;;;;12.15;9.20;;;11.00;99.90;;;;;;5095330;28;20226;-77
2022/10/21 12:34:58;;;;;;;14.32;9.60;;;11.10;99.90;;;;;;5074840;28;20231;-77
2022/10/21 12:38:19;;;;;;;16.23;9.60;;;11.20;99.90;;;;;;5071689;28;20224;-77
2022/10/21 12:41:28;;;;;;;12.02;8.50;;;11.00;99.90;;;;;;5067934;28;20216;-77
2022/10/21 12:44:25;;;;;;;15.07;9.55;;;10.90;99.90;;;;;;5083945;28;20302;-76
2022/10/21 12:47:29;;;;;;;10.98;8.82;;;10.90;99.90;;;;;;5094543;28;20219;-76
2022/10/21 12:50:28;;;;;;;16.23;9.15;;;10.90;99.90;;;;;;5077699;28;20740;-77
2022/10/21 12:53:37;;;;;;;12.88;9.13;;;10.80;99.90;;;;;;5084114;28;20223;-75
2022/10/21 12:56:30;;;;;;;14.85;8.68;;;10.90;99.90;;;;;;5084750;28;20227;-76
2022/10/21 12:59:32;;;;;;;12.90;8.98;;;10.90;99.90;;;;;;5077625;28;20239;-78
2022/10/21 13:02:28;;;;;;;13.27;8.13;;;10.90;99.90;;;;;;5086877;28;20238;-77
2022/10/21 13:05:55;;;;;;;12.68;8.65;;;10.90;99.90;;;;;;5090837;28;20215;-75
2022/10/21 13:08:54;;;;;;;14.63;8.55;;;11.00;99.90;;;;;;5080998;28;20219;-77
2022/10/21 13:11:43;;;;;;;15.70;8.65;;;11.00;99.90;;;;;;5092064;28;20226;-78
2022/10/21 13:14:40;;;;;;;11.93;8.90;;;10.90;99.90;;;;;;5100193;28;20215;-77
2022/10/21 13:17:48;;;;;;;15.48;8.55;;;11.00;99.90;;;;;;5088081;28;20231;-76
2022/10/21 13:20:48;;;;;;;12.25;8.13;;;11.10;99.90;;;;;;5084101;28;20216;-77
2022/10/21 13:23:40;;;;;;;16.33;9.85;;;11.10;99.90;;;;;;5098847;28;20293;-77
2022/10/21 13:26:30;;;;;;;13.68;9.23;;;11.10;99.90;;;;;;5082517;28;20228;-76
2022/10/21 13:29:25;;;;;;;11.90;8.23;;;11.10;99.90;;;;;;5097655;28;20713;-77
2022/10/21 13:32:33;;;;;;;12.38;9.13;;;11.10;99.90;;;;;;5105200;28;20242;-76
2022/10/21 13:35:29;;;;;;;17.20;9.00;;;11.10;99.90;;;;;;5093728;28;20310;-76
2022/10/21 13:38:22;;;;;;;12.48;8.60;;;11.10;99.90;;;;;;5104699;28;20814;-76
2022/10/21 13:41:22;;;;;;;16.27;8.82;;;11.20;99.90;;;;;;5099701;28;20226;-77
2022/10/21 13:44:27;;;;;;;13.77;8.25;;;11.10;99.90;;;;;;5098446;28;20229;-77
2022/10/21 13:47:26;;;;;;;19.63;8.68;;;11.10;99.90;;;;;;5104003;28;20221;-76
2022/10/21 13:50:19;;;;;;;13.90;8.38;;;11.00;99.90;;;;;;5102282;28;20682;-76
2022/10/21 13:53:34;;;;;;;12.57;7.93;;;11.10;99.90;;;;;;5100803;28;20242;-77
2022/10/21 13:56:24;;;;;;;14.63;8.45;;;11.00;99.90;;;;;;5100870;28;20729;-77
2022/10/21 13:59:24;;;;;;;15.88;8.63;;;11.00;99.90;;;;;;5110307;28;20226;-74
2022/10/21 14:02:26;;;;;;;13.15;8.45;;;11.10;99.90;;;;;;5086403;28;20229;-77
2022/10/21 14:05:34;;;;;;;14.10;8.25;;;11.20;99.90;;;;;;5101313;28;20226;-76
2022/10/21 14:08:28;;;;;;;15.50;8.70;;;11.20;99.90;;;;;;5099041;28;20219;-77
2022/10/21 14:11:20;;;;;;;11.50;7.53;;;11.10;99.90;;;;;;5107240;28;20251;-77
2022/10/21 14:14:10;;;;;;;13.05;9.02;;;11.20;99.90;;;;;;5092442;28;20226;-77
2022/10/21 14:17:06;;;;;;;11.35;8.15;;;11.20;99.90;;;;;;5092722;28;20254;-76
2022/10/21 14:20:04;;;;;;;14.85;8.10;;;11.20;99.90;;;;;;5106754;28;20222;-77
2022/10/21 14:22:55;;;;;;;12.93;7.63;;;11.00;99.90;;;;;;5077886;28;20360;-77
2022/10/21 14:25:44;;;;;;;11.23;8.35;;;11.00;99.90;;;;;;5072452;28;20238;-77
2022/10/21 14:28:34;;;;;;;13.77;7.90;;;11.10;99.90;;;;;;5086347;28;20223;-78
2022/10/21 14:31:23;;;;;;;14.93;8.75;;;11.10;99.90;;;;;;5071655;28;20215;-76
2022/10/21 14:34:22;;;;;;;10.40;7.88;;;11.10;99.90;;;;;;5089192;28;20215;-76
2022/10/21 14:37:20;;;;;;;14.35;8.50;;;11.20;99.90;;;;;;5086216;28;20254;-76
2022/10/21 14:40:11;;;;;;;11.15;7.80;;;11.20;99.90;;;;;;5081416;28;20920;-76
2022/10/21 14:43:03;;;;;;;12.75;7.55;;;11.20;99.90;;;;;;5087407;28;20722;-76
2022/10/21 14:45:53;;;;;;;13.27;7.43;;;11.20;99.90;;;;;;5070196;28;20224;-77
2022/10/21 14:48:47;;;;;;;10.75;7.45;;;11.20;99.90;;;;;;5077357;28;20578;-77
2022/10/21 14:51:37;;;;;;;12.40;7.95;;;11.20;99.90;;;;;;5087761;28;20223;-75